createdAt,value
2022-11-30T00:01:15.272Z,100750.94
2022-11-30T00:03:42.039Z,100749.25
2022-11-30T00:06:11.391Z,100743.13
2022-11-30T00:08:38.349Z,100744.72
2022-11-30T00:11:13.162Z,100737.72
2022-11-30T00:13:40.540Z,100743.84
2022-11-30T00:16:07.956Z,100742.97
2022-11-30T00:18:34.684Z,100735.09
2022-11-30T00:21:02.531Z,100740.25
2022-11-30T00:23:37.252Z,100753.16
2022-11-30T00:26:05.120Z,100760.94
2022-11-30T00:28:33.328Z,100750.41
2022-11-30T00:31:01.622Z,100758.34
2022-11-30T00:33:29.045Z,100757.47
2022-11-30T00:36:00.044Z,100758.34
2022-11-30T00:38:26.702Z,100749.72
2022-11-30T00:40:53.475Z,100740.16
2022-11-30T00:43:20.293Z,100752.28
2022-11-30T00:45:47.031Z,100758.31
2022-11-30T00:48:13.758Z,100744.53
2022-11-30T00:50:40.492Z,100749.03
2022-11-30T00:53:07.257Z,100735.94
2022-11-30T00:55:33.931Z,100740.47
2022-11-30T00:58:01.471Z,100735.25
2022-11-30T01:00:28.949Z,100744.81
2022-11-30T01:02:56.521Z,100740.63
2022-11-30T01:05:23.215Z,100740.63
2022-11-30T01:07:49.917Z,100730.16
2022-11-30T01:10:16.903Z,100728.53
2022-11-30T01:12:43.583Z,100722.56
2022-11-30T01:15:10.994Z,100720.63
2022-11-30T01:17:37.670Z,100720.66
2022-11-30T01:20:06.544Z,100721.50
2022-11-30T01:22:33.208Z,100719.72
2022-11-30T01:24:59.957Z,100725.84
2022-11-30T01:27:26.690Z,100688.72
2022-11-30T01:29:53.437Z,100706.22
2022-11-30T01:32:20.143Z,100702.91
2022-11-30T01:34:46.977Z,100703.84
2022-11-30T01:37:13.817Z,100706.34
2022-11-30T01:39:40.840Z,100707.25
2022-11-30T01:42:16.856Z,100705.53
2022-11-30T01:44:51.555Z,100687.44
2022-11-30T01:47:20.845Z,100688.34
2022-11-30T01:49:51.964Z,100707.06
2022-11-30T01:52:24.999Z,100708.13
2022-11-30T01:55:03.911Z,100701.22
2022-11-30T01:57:35.106Z,100713.19
2022-11-30T02:00:04.852Z,100713.13
2022-11-30T02:03:03.839Z,100699.34
2022-11-30T02:05:31.013Z,100714.13
2022-11-30T02:07:57.810Z,100714.13
2022-11-30T02:10:30.529Z,100704.59
2022-11-30T02:13:00.142Z,100721.06
2022-11-30T02:15:31.718Z,100722.03
2022-11-30T02:18:06.007Z,100710.69
2022-11-30T02:20:41.838Z,100727.91
2022-11-30T02:23:41.096Z,100717.66
2022-11-30T02:26:08.487Z,100727.06
2022-11-30T02:29:06.792Z,100725.44
2022-11-30T02:31:42.597Z,100699.41
2022-11-30T02:34:10.935Z,100693.47
2022-11-30T02:36:37.786Z,100705.56
2022-11-30T02:39:05.320Z,100701.28
2022-11-30T02:41:38.258Z,100713.34
2022-11-30T02:44:06.202Z,100711.41
2022-11-30T02:47:10.919Z,100725.25
2022-11-30T02:49:40.675Z,100724.22
2022-11-30T02:52:08.393Z,100717.13
2022-11-30T02:54:35.046Z,100715.50
2022-11-30T02:57:01.836Z,100726.75
2022-11-30T02:59:28.834Z,100710.31
2022-11-30T03:01:56.314Z,100711.94
2022-11-30T03:04:23.003Z,100725.03
2022-11-30T03:06:49.877Z,100725.88
2022-11-30T03:09:16.508Z,100722.41
2022-11-30T03:11:43.160Z,100736.25
2022-11-30T03:14:09.815Z,100727.66
2022-11-30T03:16:37.579Z,100725.91
2022-11-30T03:19:04.383Z,100718.31
2022-11-30T03:21:31.069Z,100710.16
2022-11-30T03:23:57.776Z,100697.44
2022-11-30T03:26:24.513Z,100703.38
2022-11-30T03:28:51.189Z,100712.09
2022-11-30T03:31:17.863Z,100718.78
2022-11-30T03:33:44.544Z,100712.00
2022-11-30T03:36:12.360Z,100720.63
2022-11-30T03:38:39.231Z,100701.88
2022-11-30T03:41:16.715Z,100697.56
2022-11-30T03:43:47.053Z,100702.63
2022-11-30T03:46:14.046Z,100699.94
2022-11-30T03:48:43.689Z,100718.00
2022-11-30T03:51:11.386Z,100719.72
2022-11-30T03:53:38.137Z,100723.13
2022-11-30T03:56:07.334Z,100723.13
2022-11-30T03:58:34.831Z,100693.56
2022-11-30T04:01:05.782Z,100709.28
2022-11-30T04:03:32.642Z,100702.31
2022-11-30T04:05:59.392Z,100702.09
2022-11-30T04:08:26.932Z,100702.22
2022-11-30T04:10:55.592Z,100702.31
2022-11-30T04:13:22.964Z,100675.31
2022-11-30T04:15:51.233Z,100713.59
2022-11-30T04:18:19.326Z,100715.22
2022-11-30T04:20:46.167Z,100707.19
2022-11-30T04:23:13.384Z,100722.72
2022-11-30T04:25:41.337Z,100722.72
2022-11-30T04:28:09.186Z,100720.13
2022-11-30T04:30:37.341Z,100730.44
2022-11-30T04:33:10.508Z,100727.88
2022-11-30T04:35:46.264Z,100715.84
2022-11-30T04:38:13.074Z,100730.50
2022-11-30T04:40:42.872Z,100710.56
2022-11-30T04:43:10.585Z,100705.31
2022-11-30T04:45:37.462Z,100729.50
2022-11-30T04:48:04.584Z,100725.91
2022-11-30T04:50:31.716Z,100726.00
2022-11-30T04:52:58.448Z,100737.00
2022-11-30T04:55:25.753Z,100743.03
2022-11-30T04:57:52.451Z,100737.09
2022-11-30T05:00:19.893Z,100740.47
2022-11-30T05:02:52.515Z,100748.88
2022-11-30T05:05:20.120Z,100754.09
2022-11-30T05:07:59.661Z,100751.59
2022-11-30T05:10:27.473Z,100747.94
2022-11-30T05:12:54.375Z,100746.94
2022-11-30T05:15:21.321Z,100760.75
2022-11-30T05:17:47.981Z,100767.44
2022-11-30T05:20:14.762Z,100727.63
2022-11-30T05:22:41.406Z,100764.06
2022-11-30T05:25:08.566Z,100765.88
2022-11-30T05:27:35.856Z,100762.41
2022-11-30T05:30:03.596Z,100764.97
2022-11-30T05:32:30.263Z,100767.63
2022-11-30T05:34:57.463Z,100762.34
2022-11-30T05:37:24.378Z,100769.09
2022-11-30T05:39:51.043Z,100765.69
2022-11-30T05:42:17.739Z,100762.16
2022-11-30T05:44:45.733Z,100772.31
2022-11-30T05:47:12.779Z,100757.66
2022-11-30T05:49:39.506Z,100770.47
2022-11-30T05:52:06.295Z,100765.41
2022-11-30T05:54:34.288Z,100761.97
2022-11-30T05:57:01.198Z,100771.47
2022-11-30T05:59:27.963Z,100771.47
2022-11-30T06:01:54.794Z,100761.94
2022-11-30T06:04:21.856Z,100773.03
2022-11-30T06:06:49.671Z,100769.84
2022-11-30T06:09:16.560Z,100765.13
2022-11-30T06:11:43.176Z,100756.47
2022-11-30T06:14:09.987Z,100740.00
2022-11-30T06:16:39.337Z,100736.81
2022-11-30T06:19:06.391Z,100757.66
2022-11-30T06:21:33.241Z,100757.63
2022-11-30T06:24:00.346Z,100760.31
2022-11-30T06:26:27.022Z,100766.28
2022-11-30T06:28:53.676Z,100773.97
2022-11-30T06:31:20.393Z,100769.75
2022-11-30T06:33:47.065Z,100777.47
2022-11-30T06:36:13.664Z,100776.50
2022-11-30T06:38:40.366Z,100794.50
2022-11-30T06:41:09.140Z,100785.09
2022-11-30T06:43:37.258Z,100810.00
2022-11-30T06:46:04.805Z,100798.53
2022-11-30T06:48:31.591Z,100808.09
2022-11-30T06:50:59.011Z,100799.41
2022-11-30T06:53:25.973Z,100813.97
2022-11-30T06:55:52.764Z,100803.69
2022-11-30T06:58:19.505Z,100811.59
2022-11-30T07:00:46.427Z,100815.16
2022-11-30T07:03:13.525Z,100806.25
2022-11-30T07:05:43.576Z,100819.47
2022-11-30T07:08:11.403Z,100817.56
2022-11-30T07:10:42.687Z,100812.63
2022-11-30T07:13:14.111Z,100813.44
2022-11-30T07:15:41.504Z,100799.56
2022-11-30T07:18:08.898Z,100812.03
2022-11-30T07:20:36.768Z,100798.84
2022-11-30T07:23:22.362Z,100818.06
2022-11-30T07:26:09.696Z,100818.84
2022-11-30T07:28:41.777Z,100809.53
2022-11-30T07:31:27.902Z,100815.31
2022-11-30T07:33:55.588Z,100811.78
2022-11-30T07:36:23.697Z,100802.91
2022-11-30T07:38:50.474Z,100801.31
2022-11-30T07:41:17.203Z,100822.09
2022-11-30T07:43:44.126Z,100826.28
2022-11-30T07:46:13.108Z,100816.88
2022-11-30T07:48:40.289Z,100808.72
2022-11-30T07:51:10.379Z,100816.41
2022-11-30T07:53:40.574Z,100817.41
2022-11-30T07:56:12.368Z,100811.09
2022-11-30T07:58:39.918Z,100814.63
2022-11-30T08:01:08.887Z,100815.50
2022-11-30T08:03:37.239Z,100826.84
2022-11-30T08:06:15.483Z,100826.06
2022-11-30T08:08:46.553Z,100827.94
2022-11-30T08:11:15.388Z,100821.03
2022-11-30T08:13:42.403Z,100825.28
2022-11-30T08:16:20.127Z,100834.19
2022-11-30T08:18:47.731Z,100816.94
2022-11-30T08:21:16.329Z,100823.19
2022-11-30T08:23:48.394Z,100809.94
2022-11-30T08:26:17.827Z,100814.25
2022-11-30T08:28:45.342Z,100813.59
2022-11-30T08:31:17.667Z,100794.63
2022-11-30T08:33:44.757Z,100788.34
2022-11-30T08:36:16.599Z,100802.22
2022-11-30T08:38:44.487Z,100800.47
2022-11-30T08:41:12.723Z,100812.75
2022-11-30T08:43:39.780Z,100806.47
2022-11-30T08:46:34.641Z,100803.88
2022-11-30T08:49:12.875Z,100799.59
2022-11-30T08:52:15.371Z,100792.56
2022-11-30T08:54:31.419Z,100796.75
2022-11-30T08:56:59.270Z,100794.44
2022-11-30T08:59:26.085Z,100799.69
2022-11-30T09:01:52.921Z,100797.88
2022-11-30T09:04:19.564Z,100805.56
2022-11-30T09:06:46.175Z,100801.56
2022-11-30T09:09:12.884Z,100807.44
2022-11-30T09:11:39.521Z,100809.06
2022-11-30T09:14:08.060Z,100797.88
2022-11-30T09:16:35.382Z,100806.03
2022-11-30T09:19:02.403Z,100803.19
2022-11-30T09:21:29.464Z,100797.84
2022-11-30T09:23:56.766Z,100804.72
2022-11-30T09:26:25.401Z,100802.97
2022-11-30T09:28:54.715Z,100802.44
2022-11-30T09:31:23.720Z,100795.28
2022-11-30T09:33:50.573Z,100788.22
2022-11-30T09:36:19.715Z,100802.97
2022-11-30T09:38:47.436Z,100800.28
2022-11-30T09:41:47.910Z,100799.66
2022-11-30T09:44:33.015Z,100805.69
2022-11-30T09:47:14.794Z,100801.25
2022-11-30T09:49:44.386Z,100786.31
2022-11-30T09:52:39.009Z,100792.84
2022-11-30T09:55:09.208Z,100793.88
2022-11-30T09:57:53.576Z,100787.94
2022-11-30T10:00:22.563Z,100775.81
2022-11-30T10:02:50.754Z,100781.78
2022-11-30T10:05:22.394Z,100785.31
2022-11-30T10:08:12.536Z,100763.06
2022-11-30T10:10:45.323Z,100767.28
2022-11-30T10:13:28.037Z,100765.28
2022-11-30T10:16:04.693Z,100767.91
2022-11-30T10:18:59.433Z,100756.81
2022-11-30T10:21:31.531Z,100769.75
2022-11-30T10:24:16.490Z,100763.84
2022-11-30T10:27:08.970Z,100755.84
2022-11-30T10:29:37.725Z,100763.19
2022-11-30T10:32:14.465Z,100748.47
2022-11-30T10:34:41.809Z,100751.16
2022-11-30T10:37:13.220Z,100742.94
2022-11-30T10:40:01.229Z,100746.22
2022-11-30T10:42:50.241Z,100741.97
2022-11-30T10:45:20.527Z,100740.59
2022-11-30T10:47:54.908Z,100740.59
2022-11-30T10:50:24.379Z,100754.66
2022-11-30T10:52:56.366Z,100736.88
2022-11-30T10:55:25.480Z,100762.16
2022-11-30T10:57:59.706Z,100742.91
2022-11-30T11:00:26.431Z,100745.25
2022-11-30T11:02:53.898Z,100737.66
2022-11-30T11:05:22.269Z,100753.34
2022-11-30T11:07:55.359Z,100745.69
2022-11-30T11:10:28.410Z,100753.06
2022-11-30T11:12:55.904Z,100754.81
2022-11-30T11:15:24.115Z,100752.47
2022-11-30T11:17:51.669Z,100751.69
2022-11-30T11:20:27.448Z,100758.53
2022-11-30T11:22:54.125Z,100751.38
2022-11-30T11:25:22.993Z,100741.88
2022-11-30T11:27:55.067Z,100762.75
2022-11-30T11:30:29.707Z,100757.63
2022-11-30T11:33:00.391Z,100763.19
2022-11-30T11:35:39.757Z,100756.13
2022-11-30T11:38:29.053Z,100760.81
2022-11-30T11:41:01.617Z,100769.53
2022-11-30T11:43:33.537Z,100767.25
2022-11-30T11:46:11.729Z,100752.25
2022-11-30T11:48:41.030Z,100777.31
2022-11-30T11:51:10.118Z,100774.72
2022-11-30T11:53:53.282Z,100766.84
2022-11-30T11:56:24.654Z,100778.09
2022-11-30T11:59:16.396Z,100785.25
2022-11-30T12:01:52.064Z,100785.41
2022-11-30T12:04:37.636Z,100785.09
2022-11-30T12:07:30.074Z,100777.47
2022-11-30T12:13:28.969Z,100775.88
2022-11-30T12:16:20.313Z,100776.03
2022-11-30T12:18:56.024Z,100795.59
2022-11-30T12:21:52.301Z,100791.78
2022-11-30T12:24:27.912Z,100787.50
2022-11-30T12:27:00.094Z,100787.63
2022-11-30T12:29:45.986Z,100788.31
2022-11-30T12:32:12.744Z,100794.38
2022-11-30T12:35:11.749Z,100791.78
2022-11-30T12:37:58.162Z,100800.22
2022-11-30T12:40:35.797Z,100797.63
2022-11-30T12:43:28.756Z,100795.28
2022-11-30T12:46:02.627Z,100794.78
2022-11-30T12:48:29.351Z,100786.00
2022-11-30T12:51:18.931Z,100799.69
2022-11-30T12:54:23.029Z,100798.81
2022-11-30T12:56:55.707Z,100793.13
2022-11-30T12:59:45.375Z,100783.66
2022-11-30T13:02:33.864Z,100785.09
2022-11-30T13:05:04.701Z,100787.56
2022-11-30T13:07:46.782Z,100792.31
2022-11-30T13:10:37.720Z,100793.97
2022-11-30T13:13:05.103Z,100784.00
2022-11-30T13:15:34.202Z,100791.81
2022-11-30T13:18:02.016Z,100792.44
2022-11-30T13:20:42.724Z,100784.69
2022-11-30T13:23:17.211Z,100799.84
2022-11-30T13:26:09.775Z,100780.06
2022-11-30T13:28:42.898Z,100787.72
2022-11-30T13:31:17.902Z,100789.50
2022-11-30T13:33:51.617Z,100777.41
2022-11-30T13:36:32.437Z,100766.16
2022-11-30T13:39:15.271Z,100765.88
2022-11-30T13:42:00.360Z,100775.56
2022-11-30T13:44:33.276Z,100774.69
2022-11-30T13:47:02.088Z,100773.81
2022-11-30T13:49:31.010Z,100772.25
2022-11-30T13:52:21.712Z,100764.22
2022-11-30T13:54:53.937Z,100765.25
2022-11-30T13:57:29.662Z,100765.13
2022-11-30T13:59:58.559Z,100772.75
2022-11-30T14:02:36.508Z,100767.72
2022-11-30T14:05:35.112Z,100775.34
2022-11-30T14:08:01.782Z,100769.31
2022-11-30T14:10:31.439Z,100773.53
2022-11-30T14:13:04.724Z,100775.22
2022-11-30T14:15:43.250Z,100774.38
2022-11-30T14:18:10.026Z,100787.19
2022-11-30T14:20:42.857Z,100778.63
2022-11-30T14:23:15.326Z,100775.94
2022-11-30T14:25:47.681Z,100786.19
2022-11-30T14:28:18.041Z,100784.50
2022-11-30T14:30:45.100Z,100774.97
2022-11-30T14:33:20.179Z,100771.53
2022-11-30T14:35:49.914Z,100789.72
2022-11-30T14:38:32.072Z,100783.66
2022-11-30T14:40:58.859Z,100773.25
2022-11-30T14:43:25.611Z,100788.06
2022-11-30T14:46:06.390Z,100787.97
2022-11-30T14:48:34.944Z,100786.25
2022-11-30T14:51:05.332Z,100781.16
2022-11-30T14:53:52.348Z,100777.59
2022-11-30T14:56:45.108Z,100794.88
2022-11-30T14:59:33.572Z,100796.72
2022-11-30T15:02:03.252Z,100790.53
2022-11-30T15:04:30.821Z,100795.00
2022-11-30T15:06:58.169Z,100787.84
2022-11-30T15:09:30.648Z,100794.03
2022-11-30T15:11:58.048Z,100785.03
2022-11-30T15:14:24.792Z,100803.25
2022-11-30T15:16:53.843Z,100805.03
2022-11-30T15:19:24.995Z,100806.75
2022-11-30T15:21:52.963Z,100805.97
2022-11-30T15:24:20.320Z,100811.03
2022-11-30T15:26:59.198Z,100802.44
2022-11-30T15:29:37.372Z,100795.34
2022-11-30T15:32:08.340Z,100797.97
2022-11-30T15:34:57.095Z,100813.41
2022-11-30T15:37:34.917Z,100806.69
2022-11-30T15:40:04.176Z,100796.94
2022-11-30T15:42:39.832Z,100803.19
2022-11-30T15:45:28.604Z,100822.81
2022-11-30T15:47:57.697Z,100825.47
2022-11-30T15:50:28.533Z,100823.72
2022-11-30T15:53:00.129Z,100813.41
2022-11-30T15:55:47.968Z,100812.56
2022-11-30T15:58:32.015Z,100815.13
2022-11-30T16:01:14.892Z,100812.50
2022-11-30T16:03:58.159Z,100810.88
2022-11-30T16:06:27.139Z,100820.03
2022-11-30T16:08:54.413Z,100806.25
2022-11-30T16:11:21.236Z,100820.25
2022-11-30T16:13:48.053Z,100810.97
2022-11-30T16:16:23.825Z,100811.13
2022-11-30T16:18:50.608Z,100815.56
2022-11-30T16:21:20.559Z,100811.19
2022-11-30T16:23:48.154Z,100822.44
2022-11-30T16:26:43.524Z,100815.56
2022-11-30T16:29:07.526Z,100811.31
2022-11-30T16:31:34.764Z,100819.63
2022-11-30T16:34:04.628Z,100815.13
2022-11-30T16:36:31.270Z,100807.06
2022-11-30T16:38:58.056Z,100820.84
2022-11-30T16:41:26.644Z,100815.09
2022-11-30T16:43:55.191Z,100821.91
2022-11-30T16:46:26.612Z,100818.47
2022-11-30T16:48:53.748Z,100804.81
2022-11-30T16:51:31.574Z,100810.88
2022-11-30T16:53:58.789Z,100816.19
2022-11-30T16:56:25.720Z,100814.31
2022-11-30T16:58:52.847Z,100815.16
2022-11-30T17:01:31.770Z,100806.44
2022-11-30T17:04:14.987Z,100810.06
2022-11-30T17:06:41.636Z,100811.78
2022-11-30T17:09:16.125Z,100798.88
2022-11-30T17:11:43.400Z,100801.50
2022-11-30T17:14:14.454Z,100804.09
2022-11-30T17:16:41.708Z,100813.47
2022-11-30T17:19:09.516Z,100795.38
2022-11-30T17:21:39.353Z,100805.03
2022-11-30T17:24:07.175Z,100806.81
2022-11-30T17:26:33.971Z,100803.34
2022-11-30T17:29:00.738Z,100799.00
2022-11-30T17:31:27.539Z,100809.34
2022-11-30T17:33:54.370Z,100795.59
2022-11-30T17:36:21.108Z,100807.75
2022-11-30T17:38:47.852Z,100801.72
2022-11-30T17:41:19.611Z,100798.47
2022-11-30T17:43:47.544Z,100801.75
2022-11-30T17:46:17.203Z,100794.09
2022-11-30T17:48:44.540Z,100800.88
2022-11-30T17:51:12.337Z,100801.75
2022-11-30T17:53:39.982Z,100794.72
2022-11-30T17:56:11.897Z,100787.88
2022-11-30T17:58:43.309Z,100795.75
2022-11-30T18:01:19.687Z,100784.50
2022-11-30T18:03:46.654Z,100790.75
2022-11-30T18:06:14.624Z,100790.75
2022-11-30T18:08:41.429Z,100781.28
2022-11-30T18:11:09.978Z,100780.41
2022-11-30T18:13:36.734Z,100791.66
2022-11-30T18:16:08.721Z,100785.75
2022-11-30T18:18:35.444Z,100782.97
2022-11-30T18:21:06.735Z,100791.59
2022-11-30T18:23:35.150Z,100785.59
2022-11-30T18:26:03.531Z,100777.81
2022-11-30T18:28:30.517Z,100787.97
2022-11-30T18:30:57.367Z,100778.69
2022-11-30T18:33:24.100Z,100800.34
2022-11-30T18:35:50.880Z,100788.16
2022-11-30T18:38:17.537Z,100783.72
2022-11-30T18:40:44.343Z,100797.75
2022-11-30T18:43:11.017Z,100790.03
2022-11-30T18:45:38.716Z,100793.41
2022-11-30T18:48:06.563Z,100787.28
2022-11-30T18:50:33.331Z,100797.75
2022-11-30T18:53:01.338Z,100768.13
2022-11-30T18:55:30.469Z,100790.75
2022-11-30T18:57:57.319Z,100800.28
2022-11-30T19:00:24.133Z,100795.19
2022-11-30T19:02:51.077Z,100802.25
2022-11-30T19:05:34.942Z,100793.50
2022-11-30T19:08:06.385Z,100805.59
2022-11-30T19:10:36.820Z,100788.06
2022-11-30T19:13:05.288Z,100801.22
2022-11-30T19:15:41.846Z,100809.88
2022-11-30T19:18:11.024Z,100808.13
2022-11-30T19:20:41.478Z,100792.69
2022-11-30T19:23:08.449Z,100806.44
2022-11-30T19:25:35.226Z,100807.38
2022-11-30T19:28:01.868Z,100800.47
2022-11-30T19:30:28.639Z,100816.78
2022-11-30T19:32:55.348Z,100822.91
2022-11-30T19:35:23.208Z,100827.22
2022-11-30T19:37:52.134Z,100798.59
2022-11-30T19:40:18.975Z,100822.91
2022-11-30T19:42:45.603Z,100803.13
2022-11-30T19:45:12.278Z,100820.50
2022-11-30T19:47:50.337Z,100801.28
2022-11-30T19:50:17.067Z,100818.50
2022-11-30T19:52:43.850Z,100811.78
2022-11-30T19:55:10.463Z,100827.28
2022-11-30T19:57:37.135Z,100826.63
2022-11-30T20:00:08.294Z,100831.84
2022-11-30T20:02:38.235Z,100814.50
2022-11-30T20:05:05.176Z,100824.03
2022-11-30T20:07:31.876Z,100828.31
2022-11-30T20:09:58.573Z,100825.75
2022-11-30T20:12:25.215Z,100813.47
2022-11-30T20:14:52.292Z,100842.94
2022-11-30T20:17:18.954Z,100815.25
2022-11-30T20:19:45.803Z,100817.13
2022-11-30T20:22:12.490Z,100838.84
2022-11-30T20:24:39.125Z,100842.16
2022-11-30T20:27:05.769Z,100828.31
2022-11-30T20:29:32.434Z,100834.25
2022-11-30T20:31:59.114Z,100823.72
2022-11-30T20:34:29.839Z,100842.00
2022-11-30T20:37:00.654Z,100843.78
2022-11-30T20:39:28.430Z,100845.38
2022-11-30T20:41:55.061Z,100845.22
2022-11-30T20:44:21.790Z,100848.00
2022-11-30T20:46:48.491Z,100847.00
2022-11-30T20:49:17.947Z,100850.56
2022-11-30T20:51:45.676Z,100847.25
2022-11-30T20:54:13.093Z,100815.84
2022-11-30T20:56:40.494Z,100841.91
2022-11-30T20:59:17.930Z,100854.84
2022-11-30T21:01:47.066Z,100842.88
2022-11-30T21:04:13.865Z,100848.88
2022-11-30T21:06:45.664Z,100841.88
2022-11-30T21:09:14.526Z,100841.84
2022-11-30T21:11:41.229Z,100848.72
2022-11-30T21:14:08.223Z,100836.59
2022-11-30T21:16:35.733Z,100843.56
2022-11-30T21:19:02.634Z,100846.00
2022-11-30T21:21:32.169Z,100851.09
2022-11-30T21:24:00.709Z,100848.50
2022-11-30T21:26:33.399Z,100846.78
2022-11-30T21:29:06.107Z,100845.03
2022-11-30T21:31:33.721Z,100852.84
2022-11-30T21:34:00.661Z,100849.34
2022-11-30T21:36:27.619Z,100835.47
2022-11-30T21:39:01.008Z,100845.88
2022-11-30T21:41:31.390Z,100849.31
2022-11-30T21:43:58.098Z,100845.81
2022-11-30T21:46:24.875Z,100844.16
2022-11-30T21:48:51.541Z,100852.66
2022-11-30T21:51:23.721Z,100851.66
2022-11-30T21:53:53.518Z,100851.78
2022-11-30T21:56:23.087Z,100842.16
2022-11-30T21:58:50.994Z,100830.06
2022-11-30T22:01:32.045Z,100842.97
2022-11-30T22:03:59.785Z,100847.31
2022-11-30T22:06:29.562Z,100853.22
2022-11-30T22:09:09.579Z,100847.31
2022-11-30T22:11:41.439Z,100846.44
2022-11-30T22:14:12.171Z,100833.41
2022-11-30T22:16:50.021Z,100841.13
2022-11-30T22:19:18.402Z,100830.69
2022-11-30T22:21:49.766Z,100854.06
2022-11-30T22:24:17.054Z,100834.16
2022-11-30T22:26:45.130Z,100845.44
2022-11-30T22:29:20.594Z,100845.34
2022-11-30T22:31:47.925Z,100850.66
2022-11-30T22:34:14.898Z,100818.50
2022-11-30T22:36:43.439Z,100853.19
2022-11-30T22:39:12.387Z,100839.41
2022-11-30T22:41:40.270Z,100842.84
2022-11-30T22:44:07.026Z,100830.69
2022-11-30T22:46:35.399Z,100837.66
2022-11-30T22:49:04.310Z,100829.88
2022-11-30T22:51:32.421Z,100831.63
2022-11-30T22:53:59.664Z,100835.88
2022-11-30T22:56:31.323Z,100836.75
2022-11-30T22:59:00.642Z,100832.41
2022-11-30T23:01:38.803Z,100834.19
2022-11-30T23:04:11.385Z,100831.50
2022-11-30T23:06:40.029Z,100809.00
2022-11-30T23:09:10.434Z,100827.13
2022-11-30T23:11:37.273Z,100830.63
2022-11-30T23:14:08.378Z,100827.13
2022-11-30T23:16:36.466Z,100816.69
2022-11-30T23:19:03.915Z,100827.88
2022-11-30T23:21:38.896Z,100828.72
2022-11-30T23:24:08.747Z,100824.38
2022-11-30T23:26:37.450Z,100833.00
2022-11-30T23:29:08.688Z,100828.69
2022-11-30T23:31:37.327Z,100833.94
2022-11-30T23:34:06.690Z,100838.06
2022-11-30T23:36:34.136Z,100832.88
2022-11-30T23:39:04.505Z,100830.22
2022-11-30T23:41:31.250Z,100826.69
2022-11-30T23:43:57.876Z,100829.41
2022-11-30T23:46:25.185Z,100831.00
2022-11-30T23:48:52.242Z,100817.97
2022-11-30T23:51:19.113Z,100834.31
2022-11-30T23:53:47.378Z,100842.81
2022-11-30T23:56:15.884Z,100837.78
2022-11-30T23:58:42.625Z,100842.16
